sensor_id;sensor_type;location;lat;lon;timestamp;P1;durP1;ratioP1;P2;durP2;ratioP2
78614;SDS011;67937;52.488;20.952;2023-09-19T00:00:40;8.50;;;7.50;;
78614;SDS011;67937;52.488;20.952;2023-09-19T00:03:27;10.10;;;8.00;;
78614;SDS011;67937;52.488;20.952;2023-09-19T00:05:54;8.90;;;8.00;;
78614;SDS011;67937;52.488;20.952;2023-09-19T00:08:21;10.80;;;7.30;;
78614;SDS011;67937;52.488;20.952;2023-09-19T00:10:50;11.00;;;8.00;;
78614;SDS011;67937;52.488;20.952;2023-09-19T00:13:17;8.80;;;7.30;;
78614;SDS011;67937;52.488;20.952;2023-09-19T00:15:45;9.10;;;7.70;;
78614;SDS011;67937;52.488;20.952;2023-09-19T00:18:14;10.00;;;7.60;;
78614;SDS011;67937;52.488;20.952;2023-09-19T00:20:41;10.50;;;8.00;;
78614;SDS011;67937;52.488;20.952;2023-09-19T00:23:08;12.50;;;8.10;;
78614;SDS011;67937;52.488;20.952;2023-09-19T00:25:35;9.40;;;7.60;;
78614;SDS011;67937;52.488;20.952;2023-09-19T00:28:03;9.70;;;7.20;;
78614;SDS011;67937;52.488;20.952;2023-09-19T00:30:31;10.70;;;7.70;;
78614;SDS011;67937;52.488;20.952;2023-09-19T00:32:58;8.90;;;7.80;;
78614;SDS011;67937;52.488;20.952;2023-09-19T00:35:27;10.60;;;8.20;;
78614;SDS011;67937;52.488;20.952;2023-09-19T00:37:53;9.60;;;8.60;;
78614;SDS011;67937;52.488;20.952;2023-09-19T00:40:21;10.80;;;7.80;;
78614;SDS011;67937;52.488;20.952;2023-09-19T00:42:48;14.60;;;9.10;;
78614;SDS011;67937;52.488;20.952;2023-09-19T00:45:16;10.80;;;8.40;;
78614;SDS011;67937;52.488;20.952;2023-09-19T00:47:44;10.10;;;8.40;;
78614;SDS011;67937;52.488;20.952;2023-09-19T00:52:43;13.30;;;8.90;;
78614;SDS011;67937;52.488;20.952;2023-09-19T00:55:10;12.90;;;8.20;;
78614;SDS011;67937;52.488;20.952;2023-09-19T00:57:39;10.30;;;8.20;;
78614;SDS011;67937;52.488;20.952;2023-09-19T01:00:06;14.00;;;9.40;;
78614;SDS011;67937;52.488;20.952;2023-09-19T01:05:03;9.90;;;7.60;;
78614;SDS011;67937;52.488;20.952;2023-09-19T01:07:32;12.40;;;8.30;;
78614;SDS011;67937;52.488;20.952;2023-09-19T01:09:59;11.20;;;7.90;;
78614;SDS011;67937;52.488;20.952;2023-09-19T01:16:09;11.20;;;8.40;;
78614;SDS011;67937;52.488;20.952;2023-09-19T01:30:21;11.50;;;7.70;;
78614;SDS011;67937;52.488;20.952;2023-09-19T01:32:50;9.70;;;8.00;;
78614;SDS011;67937;52.488;20.952;2023-09-19T01:35:18;10.40;;;8.10;;
78614;SDS011;67937;52.488;20.952;2023-09-19T01:37:45;8.70;;;7.60;;
78614;SDS011;67937;52.488;20.952;2023-09-19T01:40:12;12.10;;;7.60;;
78614;SDS011;67937;52.488;20.952;2023-09-19T01:42:44;10.20;;;8.00;;
78614;SDS011;67937;52.488;20.952;2023-09-19T01:45:22;10.70;;;8.20;;
78614;SDS011;67937;52.488;20.952;2023-09-19T01:47:53;11.00;;;8.90;;
78614;SDS011;67937;52.488;20.952;2023-09-19T01:53:02;10.40;;;8.30;;
78614;SDS011;67937;52.488;20.952;2023-09-19T01:55:36;8.80;;;7.60;;
78614;SDS011;67937;52.488;20.952;2023-09-19T01:58:09;10.10;;;8.40;;
78614;SDS011;67937;52.488;20.952;2023-09-19T02:00:46;10.90;;;8.30;;
78614;SDS011;67937;52.488;20.952;2023-09-19T02:03:17;11.60;;;9.00;;
78614;SDS011;67937;52.488;20.952;2023-09-19T02:05:51;12.90;;;8.80;;
78614;SDS011;67937;52.488;20.952;2023-09-19T02:08:20;10.90;;;8.60;;
78614;SDS011;67937;52.488;20.952;2023-09-19T02:10:49;11.10;;;8.00;;
78614;SDS011;67937;52.488;20.952;2023-09-19T02:13:16;11.20;;;8.20;;
78614;SDS011;67937;52.488;20.952;2023-09-19T02:15:45;10.80;;;8.50;;
78614;SDS011;67937;52.488;20.952;2023-09-19T02:18:12;11.50;;;9.40;;
78614;SDS011;67937;52.488;20.952;2023-09-19T02:20:40;12.50;;;8.50;;
78614;SDS011;67937;52.488;20.952;2023-09-19T02:23:07;10.10;;;8.40;;
78614;SDS011;67937;52.488;20.952;2023-09-19T02:25:34;12.20;;;8.50;;
78614;SDS011;67937;52.488;20.952;2023-09-19T02:28:01;10.80;;;8.10;;
78614;SDS011;67937;52.488;20.952;2023-09-19T02:30:29;12.00;;;8.40;;
78614;SDS011;67937;52.488;20.952;2023-09-19T02:32:56;11.70;;;8.60;;
78614;SDS011;67937;52.488;20.952;2023-09-19T02:35:22;12.10;;;9.50;;
78614;SDS011;67937;52.488;20.952;2023-09-19T02:37:51;12.60;;;9.10;;
78614;SDS011;67937;52.488;20.952;2023-09-19T02:40:17;11.20;;;8.90;;
78614;SDS011;67937;52.488;20.952;2023-09-19T02:42:47;10.50;;;8.80;;
78614;SDS011;67937;52.488;20.952;2023-09-19T02:45:16;11.80;;;8.90;;
78614;SDS011;67937;52.488;20.952;2023-09-19T02:47:47;11.00;;;9.30;;
78614;SDS011;67937;52.488;20.952;2023-09-19T02:50:14;10.20;;;8.80;;
78614;SDS011;67937;52.488;20.952;2023-09-19T02:52:42;12.10;;;8.10;;
78614;SDS011;67937;52.488;20.952;2023-09-19T02:55:10;11.30;;;9.10;;
78614;SDS011;67937;52.488;20.952;2023-09-19T02:57:38;11.90;;;8.30;;
78614;SDS011;67937;52.488;20.952;2023-09-19T03:00:07;10.60;;;8.40;;
78614;SDS011;67937;52.488;20.952;2023-09-19T03:02:36;11.80;;;10.00;;
78614;SDS011;67937;52.488;20.952;2023-09-19T03:05:04;11.50;;;9.10;;
78614;SDS011;67937;52.488;20.952;2023-09-19T03:07:31;12.20;;;8.70;;
78614;SDS011;67937;52.488;20.952;2023-09-19T03:09:58;13.40;;;8.60;;
78614;SDS011;67937;52.488;20.952;2023-09-19T03:12:24;13.20;;;9.10;;
78614;SDS011;67937;52.488;20.952;2023-09-19T03:14:50;9.70;;;8.70;;
78614;SDS011;67937;52.488;20.952;2023-09-19T03:17:17;12.80;;;9.10;;
78614;SDS011;67937;52.488;20.952;2023-09-19T03:19:45;11.00;;;8.60;;
78614;SDS011;67937;52.488;20.952;2023-09-19T03:22:12;10.30;;;8.40;;
78614;SDS011;67937;52.488;20.952;2023-09-19T03:24:40;11.00;;;8.70;;
78614;SDS011;67937;52.488;20.952;2023-09-19T03:27:08;14.00;;;9.60;;
78614;SDS011;67937;52.488;20.952;2023-09-19T03:29:35;11.10;;;8.60;;
78614;SDS011;67937;52.488;20.952;2023-09-19T03:32:02;12.50;;;8.80;;
78614;SDS011;67937;52.488;20.952;2023-09-19T03:34:29;11.30;;;9.20;;
78614;SDS011;67937;52.488;20.952;2023-09-19T03:36:56;13.20;;;8.10;;
78614;SDS011;67937;52.488;20.952;2023-09-19T03:39:22;14.20;;;8.20;;
78614;SDS011;67937;52.488;20.952;2023-09-19T03:41:49;10.20;;;8.50;;
78614;SDS011;67937;52.488;20.952;2023-09-19T03:44:15;12.90;;;9.30;;
78614;SDS011;67937;52.488;20.952;2023-09-19T03:46:42;11.00;;;8.80;;
78614;SDS011;67937;52.488;20.952;2023-09-19T03:49:08;12.60;;;9.10;;
78614;SDS011;67937;52.488;20.952;2023-09-19T03:51:36;12.10;;;8.40;;
78614;SDS011;67937;52.488;20.952;2023-09-19T03:54:03;10.00;;;8.00;;
78614;SDS011;67937;52.488;20.952;2023-09-19T03:56:30;9.60;;;8.10;;
78614;SDS011;67937;52.488;20.952;2023-09-19T03:58:56;10.90;;;9.30;;
78614;SDS011;67937;52.488;20.952;2023-09-19T04:01:23;12.30;;;8.20;;
78614;SDS011;67937;52.488;20.952;2023-09-19T04:03:50;13.40;;;9.60;;
78614;SDS011;67937;52.488;20.952;2023-09-19T04:06:19;10.40;;;8.80;;
78614;SDS011;67937;52.488;20.952;2023-09-19T04:08:46;10.30;;;8.20;;
78614;SDS011;67937;52.488;20.952;2023-09-19T04:11:13;11.20;;;8.00;;
78614;SDS011;67937;52.488;20.952;2023-09-19T04:13:39;11.60;;;8.40;;
78614;SDS011;67937;52.488;20.952;2023-09-19T04:16:06;14.70;;;8.30;;
78614;SDS011;67937;52.488;20.952;2023-09-19T04:18:33;10.60;;;8.50;;
78614;SDS011;67937;52.488;20.952;2023-09-19T04:21:02;10.10;;;8.00;;
78614;SDS011;67937;52.488;20.952;2023-09-19T04:23:34;9.70;;;8.20;;
78614;SDS011;67937;52.488;20.952;2023-09-19T04:26:01;11.00;;;8.30;;
78614;SDS011;67937;52.488;20.952;2023-09-19T04:28:29;11.90;;;9.20;;
78614;SDS011;67937;52.488;20.952;2023-09-19T04:30:56;16.70;;;9.10;;
78614;SDS011;67937;52.488;20.952;2023-09-19T04:33:24;16.30;;;8.30;;
78614;SDS011;67937;52.488;20.952;2023-09-19T04:35:52;9.70;;;7.90;;
78614;SDS011;67937;52.488;20.952;2023-09-19T04:38:19;11.40;;;9.10;;
78614;SDS011;67937;52.488;20.952;2023-09-19T04:40:46;11.40;;;8.20;;
78614;SDS011;67937;52.488;20.952;2023-09-19T04:43:13;13.10;;;9.40;;
78614;SDS011;67937;52.488;20.952;2023-09-19T04:45:41;13.70;;;8.20;;
78614;SDS011;67937;52.488;20.952;2023-09-19T04:48:07;9.80;;;8.10;;
78614;SDS011;67937;52.488;20.952;2023-09-19T04:50:34;10.00;;;7.50;;
78614;SDS011;67937;52.488;20.952;2023-09-19T04:53:02;11.60;;;7.70;;
78614;SDS011;67937;52.488;20.952;2023-09-19T04:55:30;10.00;;;8.20;;
78614;SDS011;67937;52.488;20.952;2023-09-19T04:57:58;10.30;;;8.30;;
78614;SDS011;67937;52.488;20.952;2023-09-19T05:00:25;11.90;;;8.70;;
78614;SDS011;67937;52.488;20.952;2023-09-19T05:02:56;11.80;;;9.10;;
78614;SDS011;67937;52.488;20.952;2023-09-19T05:05:23;10.10;;;8.20;;
78614;SDS011;67937;52.488;20.952;2023-09-19T05:07:51;9.70;;;8.50;;
78614;SDS011;67937;52.488;20.952;2023-09-19T05:10:19;10.00;;;8.00;;
78614;SDS011;67937;52.488;20.952;2023-09-19T05:12:46;11.80;;;8.10;;
78614;SDS011;67937;52.488;20.952;2023-09-19T05:15:17;10.10;;;9.00;;
78614;SDS011;67937;52.488;20.952;2023-09-19T05:17:50;11.00;;;8.20;;
78614;SDS011;67937;52.488;20.952;2023-09-19T05:20:20;10.20;;;8.10;;
78614;SDS011;67937;52.488;20.952;2023-09-19T05:22:58;10.10;;;8.50;;
78614;SDS011;67937;52.488;20.952;2023-09-19T05:25:28;12.30;;;9.20;;
78614;SDS011;67937;52.488;20.952;2023-09-19T05:27:58;11.00;;;8.10;;
78614;SDS011;67937;52.488;20.952;2023-09-19T05:30:26;10.40;;;8.20;;
78614;SDS011;67937;52.488;20.952;2023-09-19T05:32:53;12.70;;;9.00;;
78614;SDS011;67937;52.488;20.952;2023-09-19T05:35:20;10.10;;;9.00;;
78614;SDS011;67937;52.488;20.952;2023-09-19T05:37:48;10.60;;;8.50;;
78614;SDS011;67937;52.488;20.952;2023-09-19T05:40:17;11.20;;;7.30;;
78614;SDS011;67937;52.488;20.952;2023-09-19T05:42:44;12.30;;;8.80;;
78614;SDS011;67937;52.488;20.952;2023-09-19T05:45:11;11.80;;;9.30;;
78614;SDS011;67937;52.488;20.952;2023-09-19T05:47:41;10.40;;;8.20;;
78614;SDS011;67937;52.488;20.952;2023-09-19T05:50:10;13.00;;;9.30;;
78614;SDS011;67937;52.488;20.952;2023-09-19T05:52:37;13.70;;;8.90;;
78614;SDS011;67937;52.488;20.952;2023-09-19T05:55:04;10.70;;;7.50;;
78614;SDS011;67937;52.488;20.952;2023-09-19T05:57:35;12.50;;;8.40;;
78614;SDS011;67937;52.488;20.952;2023-09-19T06:00:02;13.80;;;9.10;;
78614;SDS011;67937;52.488;20.952;2023-09-19T06:02:35;9.50;;;8.30;;
78614;SDS011;67937;52.488;20.952;2023-09-19T06:05:02;13.60;;;8.90;;
78614;SDS011;67937;52.488;20.952;2023-09-19T06:07:29;11.10;;;8.20;;
78614;SDS011;67937;52.488;20.952;2023-09-19T06:10:04;9.10;;;7.90;;
78614;SDS011;67937;52.488;20.952;2023-09-19T06:12:33;12.00;;;8.50;;
78614;SDS011;67937;52.488;20.952;2023-09-19T06:15:03;11.20;;;8.50;;
78614;SDS011;67937;52.488;20.952;2023-09-19T06:17:31;11.30;;;8.50;;
78614;SDS011;67937;52.488;20.952;2023-09-19T06:19:58;9.90;;;8.40;;
78614;SDS011;67937;52.488;20.952;2023-09-19T06:22:25;11.30;;;7.90;;
78614;SDS011;67937;52.488;20.952;2023-09-19T06:24:51;11.40;;;7.30;;
78614;SDS011;67937;52.488;20.952;2023-09-19T06:27:18;13.50;;;8.60;;
78614;SDS011;67937;52.488;20.952;2023-09-19T06:29:45;8.90;;;7.20;;
78614;SDS011;67937;52.488;20.952;2023-09-19T06:32:12;9.50;;;7.00;;
78614;SDS011;67937;52.488;20.952;2023-09-19T06:34:38;12.70;;;8.40;;
78614;SDS011;67937;52.488;20.952;2023-09-19T06:37:08;9.00;;;8.10;;
78614;SDS011;67937;52.488;20.952;2023-09-19T06:39:35;10.60;;;7.70;;
78614;SDS011;67937;52.488;20.952;2023-09-19T06:42:01;12.10;;;8.20;;
78614;SDS011;67937;52.488;20.952;2023-09-19T06:44:28;9.60;;;7.50;;
78614;SDS011;67937;52.488;20.952;2023-09-19T06:46:55;10.10;;;8.30;;
78614;SDS011;67937;52.488;20.952;2023-09-19T06:49:21;10.00;;;8.20;;
78614;SDS011;67937;52.488;20.952;2023-09-19T06:51:48;12.40;;;8.60;;
78614;SDS011;67937;52.488;20.952;2023-09-19T06:54:15;10.90;;;7.20;;
78614;SDS011;67937;52.488;20.952;2023-09-19T06:56:43;10.00;;;8.30;;
78614;SDS011;67937;52.488;20.952;2023-09-19T06:59:10;9.60;;;8.10;;
78614;SDS011;67937;52.488;20.952;2023-09-19T07:01:40;10.90;;;8.70;;
78614;SDS011;67937;52.488;20.952;2023-09-19T07:04:07;10.60;;;8.70;;
78614;SDS011;67937;52.488;20.952;2023-09-19T07:06:33;10.60;;;8.10;;
78614;SDS011;67937;52.488;20.952;2023-09-19T07:09:00;9.90;;;8.90;;
78614;SDS011;67937;52.488;20.952;2023-09-19T07:11:27;10.60;;;8.90;;
78614;SDS011;67937;52.488;20.952;2023-09-19T07:13:54;11.60;;;8.50;;
78614;SDS011;67937;52.488;20.952;2023-09-19T07:16:20;11.60;;;8.70;;
78614;SDS011;67937;52.488;20.952;2023-09-19T07:18:55;11.60;;;8.50;;
78614;SDS011;67937;52.488;20.952;2023-09-19T07:21:22;13.20;;;9.10;;
78614;SDS011;67937;52.488;20.952;2023-09-19T07:23:49;12.20;;;9.10;;
78614;SDS011;67937;52.488;20.952;2023-09-19T07:26:16;15.20;;;10.40;;
78614;SDS011;67937;52.488;20.952;2023-09-19T07:28:42;10.90;;;9.20;;
78614;SDS011;67937;52.488;20.952;2023-09-19T07:31:09;9.80;;;8.70;;
78614;SDS011;67937;52.488;20.952;2023-09-19T07:33:36;12.40;;;10.20;;
78614;SDS011;67937;52.488;20.952;2023-09-19T07:36:02;10.80;;;9.30;;
78614;SDS011;67937;52.488;20.952;2023-09-19T07:38:29;14.70;;;9.60;;
78614;SDS011;67937;52.488;20.952;2023-09-19T07:41:02;12.40;;;8.50;;
78614;SDS011;67937;52.488;20.952;2023-09-19T07:43:29;14.10;;;11.10;;
78614;SDS011;67937;52.488;20.952;2023-09-19T07:45:56;12.30;;;9.70;;
78614;SDS011;67937;52.488;20.952;2023-09-19T07:48:23;11.90;;;10.50;;
78614;SDS011;67937;52.488;20.952;2023-09-19T07:50:50;12.90;;;9.50;;
78614;SDS011;67937;52.488;20.952;2023-09-19T07:53:16;13.70;;;11.20;;
78614;SDS011;67937;52.488;20.952;2023-09-19T07:55:43;13.80;;;11.20;;
78614;SDS011;67937;52.488;20.952;2023-09-19T07:58:13;15.60;;;10.90;;
78614;SDS011;67937;52.488;20.952;2023-09-19T08:00:41;12.80;;;10.60;;
78614;SDS011;67937;52.488;20.952;2023-09-19T08:03:08;14.40;;;10.20;;
78614;SDS011;67937;52.488;20.952;2023-09-19T08:05:40;14.50;;;11.50;;
78614;SDS011;67937;52.488;20.952;2023-09-19T08:08:09;14.90;;;10.20;;
78614;SDS011;67937;52.488;20.952;2023-09-19T08:10:36;11.30;;;9.50;;
78614;SDS011;67937;52.488;20.952;2023-09-19T08:13:05;13.90;;;11.10;;
78614;SDS011;67937;52.488;20.952;2023-09-19T08:15:33;12.90;;;10.40;;
78614;SDS011;67937;52.488;20.952;2023-09-19T08:17:59;13.80;;;11.70;;
78614;SDS011;67937;52.488;20.952;2023-09-19T08:20:27;12.70;;;10.10;;
78614;SDS011;67937;52.488;20.952;2023-09-19T08:22:54;13.70;;;10.80;;
78614;SDS011;67937;52.488;20.952;2023-09-19T08:25:21;12.80;;;10.70;;
78614;SDS011;67937;52.488;20.952;2023-09-19T08:27:49;16.60;;;10.80;;
78614;SDS011;67937;52.488;20.952;2023-09-19T08:30:17;13.80;;;12.00;;
78614;SDS011;67937;52.488;20.952;2023-09-19T08:32:45;12.50;;;10.40;;
78614;SDS011;67937;52.488;20.952;2023-09-19T08:35:13;17.00;;;11.70;;
78614;SDS011;67937;52.488;20.952;2023-09-19T08:37:40;18.10;;;11.70;;
78614;SDS011;67937;52.488;20.952;2023-09-19T08:40:06;16.60;;;11.60;;
78614;SDS011;67937;52.488;20.952;2023-09-19T08:42:54;12.60;;;10.80;;
78614;SDS011;67937;52.488;20.952;2023-09-19T08:45:22;15.90;;;10.40;;
78614;SDS011;67937;52.488;20.952;2023-09-19T08:48:10;15.90;;;11.40;;
78614;SDS011;67937;52.488;20.952;2023-09-19T08:50:51;15.50;;;12.10;;
78614;SDS011;67937;52.488;20.952;2023-09-19T08:56:21;13.60;;;11.50;;
78614;SDS011;67937;52.488;20.952;2023-09-19T08:59:04;12.50;;;9.80;;
78614;SDS011;67937;52.488;20.952;2023-09-19T09:01:33;14.60;;;11.10;;
78614;SDS011;67937;52.488;20.952;2023-09-19T09:04:01;16.30;;;11.40;;
78614;SDS011;67937;52.488;20.952;2023-09-19T09:06:28;14.70;;;11.00;;
78614;SDS011;67937;52.488;20.952;2023-09-19T09:08:55;15.40;;;11.70;;
78614;SDS011;67937;52.488;20.952;2023-09-19T09:11:22;15.20;;;11.40;;
78614;SDS011;67937;52.488;20.952;2023-09-19T09:13:50;14.90;;;11.90;;
78614;SDS011;67937;52.488;20.952;2023-09-19T09:16:17;13.50;;;10.80;;
78614;SDS011;67937;52.488;20.952;2023-09-19T09:18:44;15.70;;;11.20;;
78614;SDS011;67937;52.488;20.952;2023-09-19T09:21:12;15.00;;;10.30;;
78614;SDS011;67937;52.488;20.952;2023-09-19T09:23:40;14.00;;;10.40;;
78614;SDS011;67937;52.488;20.952;2023-09-19T09:26:06;13.50;;;10.50;;
78614;SDS011;67937;52.488;20.952;2023-09-19T09:28:35;13.20;;;11.00;;
78614;SDS011;67937;52.488;20.952;2023-09-19T09:31:22;13.20;;;11.00;;
78614;SDS011;67937;52.488;20.952;2023-09-19T09:33:53;13.00;;;10.60;;
78614;SDS011;67937;52.488;20.952;2023-09-19T09:36:37;12.80;;;10.20;;
78614;SDS011;67937;52.488;20.952;2023-09-19T09:39:07;15.50;;;10.00;;
78614;SDS011;67937;52.488;20.952;2023-09-19T09:44:12;14.00;;;8.50;;
78614;SDS011;67937;52.488;20.952;2023-09-19T09:46:44;10.20;;;7.30;;
78614;SDS011;67937;52.488;20.952;2023-09-19T09:49:27;10.10;;;7.80;;
78614;SDS011;67937;52.488;20.952;2023-09-19T09:52:03;11.40;;;7.80;;
78614;SDS011;67937;52.488;20.952;2023-09-19T09:54:33;13.20;;;7.50;;
78614;SDS011;67937;52.488;20.952;2023-09-19T09:57:04;10.90;;;7.30;;
78614;SDS011;67937;52.488;20.952;2023-09-19T09:59:52;11.20;;;7.40;;
78614;SDS011;67937;52.488;20.952;2023-09-19T10:02:26;11.30;;;8.50;;
78614;SDS011;67937;52.488;20.952;2023-09-19T10:04:58;10.80;;;7.20;;
78614;SDS011;67937;52.488;20.952;2023-09-19T10:07:34;10.80;;;7.60;;
78614;SDS011;67937;52.488;20.952;2023-09-19T10:10:04;9.10;;;7.20;;
78614;SDS011;67937;52.488;20.952;2023-09-19T10:12:44;9.90;;;7.70;;
78614;SDS011;67937;52.488;20.952;2023-09-19T10:15:17;8.60;;;7.10;;
78614;SDS011;67937;52.488;20.952;2023-09-19T10:17:46;11.80;;;7.80;;
78614;SDS011;67937;52.488;20.952;2023-09-19T10:20:17;9.20;;;7.50;;
78614;SDS011;67937;52.488;20.952;2023-09-19T10:23:04;9.80;;;7.40;;
78614;SDS011;67937;52.488;20.952;2023-09-19T10:25:39;8.90;;;7.20;;
78614;SDS011;67937;52.488;20.952;2023-09-19T10:28:08;10.30;;;7.10;;
78614;SDS011;67937;52.488;20.952;2023-09-19T10:30:37;10.70;;;6.00;;
78614;SDS011;67937;52.488;20.952;2023-09-19T10:33:13;13.30;;;7.30;;
78614;SDS011;67937;52.488;20.952;2023-09-19T10:35:42;8.50;;;6.60;;
78614;SDS011;67937;52.488;20.952;2023-09-19T10:38:13;7.90;;;5.90;;
78614;SDS011;67937;52.488;20.952;2023-09-19T10:40:44;7.00;;;6.30;;
78614;SDS011;67937;52.488;20.952;2023-09-19T10:43:17;8.30;;;6.50;;
78614;SDS011;67937;52.488;20.952;2023-09-19T10:45:45;9.30;;;5.70;;
78614;SDS011;67937;52.488;20.952;2023-09-19T10:48:15;7.10;;;6.00;;
78614;SDS011;67937;52.488;20.952;2023-09-19T10:56:18;6.50;;;5.80;;
78614;SDS011;67937;52.488;20.952;2023-09-19T10:58:48;7.40;;;5.70;;
78614;SDS011;67937;52.488;20.952;2023-09-19T11:01:15;6.70;;;5.30;;
78614;SDS011;67937;52.488;20.952;2023-09-19T11:03:43;7.70;;;6.00;;
78614;SDS011;67937;52.488;20.952;2023-09-19T11:06:17;6.70;;;5.40;;
78614;SDS011;67937;52.488;20.952;2023-09-19T11:09:03;7.10;;;5.80;;
78614;SDS011;67937;52.488;20.952;2023-09-19T11:11:42;6.50;;;5.90;;
78614;SDS011;67937;52.488;20.952;2023-09-19T11:14:14;6.90;;;5.20;;
78614;SDS011;67937;52.488;20.952;2023-09-19T11:30:35;5.70;;;4.70;;
78614;SDS011;67937;52.488;20.952;2023-09-19T11:35:59;7.60;;;5.80;;
78614;SDS011;67937;52.488;20.952;2023-09-19T11:43:46;6.20;;;5.50;;
78614;SDS011;67937;52.488;20.952;2023-09-19T11:46:20;7.00;;;5.10;;
78614;SDS011;67937;52.488;20.952;2023-09-19T11:48:48;6.40;;;4.80;;
78614;SDS011;67937;52.488;20.952;2023-09-19T11:51:16;6.00;;;4.80;;
78614;SDS011;67937;52.488;20.952;2023-09-19T11:53:56;6.50;;;5.30;;
78614;SDS011;67937;52.488;20.952;2023-09-19T11:56:25;5.80;;;4.40;;
78614;SDS011;67937;52.488;20.952;2023-09-19T11:58:54;7.00;;;6.00;;
78614;SDS011;67937;52.488;20.952;2023-09-19T12:01:30;6.20;;;4.90;;
78614;SDS011;67937;52.488;20.952;2023-09-19T12:03:58;8.30;;;5.30;;
78614;SDS011;67937;52.488;20.952;2023-09-19T12:06:28;8.80;;;6.40;;
78614;SDS011;67937;52.488;20.952;2023-09-19T12:08:55;7.20;;;5.60;;
78614;SDS011;67937;52.488;20.952;2023-09-19T12:11:27;5.20;;;4.70;;
78614;SDS011;67937;52.488;20.952;2023-09-19T12:13:59;6.30;;;5.60;;
78614;SDS011;67937;52.488;20.952;2023-09-19T12:16:26;6.10;;;5.10;;
78614;SDS011;67937;52.488;20.952;2023-09-19T12:18:56;6.20;;;5.00;;
78614;SDS011;67937;52.488;20.952;2023-09-19T12:21:27;10.40;;;5.50;;
78614;SDS011;67937;52.488;20.952;2023-09-19T12:23:57;8.10;;;5.30;;
78614;SDS011;67937;52.488;20.952;2023-09-19T12:26:28;6.70;;;5.20;;
78614;SDS011;67937;52.488;20.952;2023-09-19T12:28:55;6.00;;;5.00;;
78614;SDS011;67937;52.488;20.952;2023-09-19T12:31:23;9.30;;;5.60;;
78614;SDS011;67937;52.488;20.952;2023-09-19T12:33:55;6.00;;;4.70;;
78614;SDS011;67937;52.488;20.952;2023-09-19T12:36:24;6.00;;;5.20;;
78614;SDS011;67937;52.488;20.952;2023-09-19T12:38:56;6.70;;;5.60;;
78614;SDS011;67937;52.488;20.952;2023-09-19T12:41:25;6.10;;;5.50;;
78614;SDS011;67937;52.488;20.952;2023-09-19T12:43:53;7.00;;;5.70;;
78614;SDS011;67937;52.488;20.952;2023-09-19T12:46:20;6.90;;;5.20;;
78614;SDS011;67937;52.488;20.952;2023-09-19T12:51:43;7.50;;;5.30;;
78614;SDS011;67937;52.488;20.952;2023-09-19T12:54:12;8.30;;;5.60;;
78614;SDS011;67937;52.488;20.952;2023-09-19T12:56:41;7.70;;;5.60;;
78614;SDS011;67937;52.488;20.952;2023-09-19T12:59:13;6.20;;;5.60;;
78614;SDS011;67937;52.488;20.952;2023-09-19T13:01:40;10.20;;;6.40;;
78614;SDS011;67937;52.488;20.952;2023-09-19T13:06:44;6.80;;;5.60;;
78614;SDS011;67937;52.488;20.952;2023-09-19T13:09:15;6.40;;;5.20;;
78614;SDS011;67937;52.488;20.952;2023-09-19T13:11:43;8.00;;;6.20;;
78614;SDS011;67937;52.488;20.952;2023-09-19T13:14:21;7.00;;;5.60;;
78614;SDS011;67937;52.488;20.952;2023-09-19T13:25:08;6.20;;;5.50;;
78614;SDS011;67937;52.488;20.952;2023-09-19T13:27:40;7.40;;;6.20;;
78614;SDS011;67937;52.488;20.952;2023-09-19T13:30:08;8.60;;;6.00;;
78614;SDS011;67937;52.488;20.952;2023-09-19T13:32:35;6.00;;;5.30;;
78614;SDS011;67937;52.488;20.952;2023-09-19T13:35:02;7.60;;;6.70;;
78614;SDS011;67937;52.488;20.952;2023-09-19T13:37:32;6.10;;;5.50;;
78614;SDS011;67937;52.488;20.952;2023-09-19T13:40:00;6.80;;;6.00;;
78614;SDS011;67937;52.488;20.952;2023-09-19T13:42:27;6.60;;;5.40;;
78614;SDS011;67937;52.488;20.952;2023-09-19T13:44:55;8.70;;;5.90;;
78614;SDS011;67937;52.488;20.952;2023-09-19T13:47:22;6.90;;;5.40;;
78614;SDS011;67937;52.488;20.952;2023-09-19T13:49:52;8.80;;;5.70;;
78614;SDS011;67937;52.488;20.952;2023-09-19T13:52:19;7.80;;;6.10;;
78614;SDS011;67937;52.488;20.952;2023-09-19T13:54:50;7.80;;;5.20;;
78614;SDS011;67937;52.488;20.952;2023-09-19T13:57:16;8.10;;;5.30;;
78614;SDS011;67937;52.488;20.952;2023-09-19T13:59:43;6.80;;;5.50;;
78614;SDS011;67937;52.488;20.952;2023-09-19T14:02:10;5.70;;;5.10;;
78614;SDS011;67937;52.488;20.952;2023-09-19T14:04:37;9.20;;;6.10;;
78614;SDS011;67937;52.488;20.952;2023-09-19T14:07:03;7.90;;;6.00;;
78614;SDS011;67937;52.488;20.952;2023-09-19T14:09:30;6.60;;;6.00;;
78614;SDS011;67937;52.488;20.952;2023-09-19T14:11:57;8.70;;;6.50;;
78614;SDS011;67937;52.488;20.952;2023-09-19T14:14:23;7.90;;;7.20;;
78614;SDS011;67937;52.488;20.952;2023-09-19T14:16:50;7.60;;;5.80;;
78614;SDS011;67937;52.488;20.952;2023-09-19T14:19:18;6.70;;;6.10;;
78614;SDS011;67937;52.488;20.952;2023-09-19T14:21:44;9.10;;;7.20;;
78614;SDS011;67937;52.488;20.952;2023-09-19T14:24:11;7.50;;;6.60;;
78614;SDS011;67937;52.488;20.952;2023-09-19T14:26:43;7.80;;;6.60;;
78614;SDS011;67937;52.488;20.952;2023-09-19T14:29:11;7.50;;;5.60;;
78614;SDS011;67937;52.488;20.952;2023-09-19T14:31:38;8.00;;;6.70;;
78614;SDS011;67937;52.488;20.952;2023-09-19T14:34:06;8.20;;;6.70;;
78614;SDS011;67937;52.488;20.952;2023-09-19T14:36:36;9.70;;;7.40;;
78614;SDS011;67937;52.488;20.952;2023-09-19T14:39:04;7.70;;;6.20;;
78614;SDS011;67937;52.488;20.952;2023-09-19T14:41:31;6.80;;;6.20;;
78614;SDS011;67937;52.488;20.952;2023-09-19T14:43:58;7.30;;;6.10;;
78614;SDS011;67937;52.488;20.952;2023-09-19T14:46:25;9.00;;;6.40;;
78614;SDS011;67937;52.488;20.952;2023-09-19T14:48:51;7.90;;;6.60;;
78614;SDS011;67937;52.488;20.952;2023-09-19T14:51:18;7.30;;;6.10;;
78614;SDS011;67937;52.488;20.952;2023-09-19T14:53:45;8.20;;;5.80;;
78614;SDS011;67937;52.488;20.952;2023-09-19T14:56:13;6.70;;;6.10;;
78614;SDS011;67937;52.488;20.952;2023-09-19T14:58:44;7.40;;;6.60;;
78614;SDS011;67937;52.488;20.952;2023-09-19T15:01:11;6.70;;;6.10;;
78614;SDS011;67937;52.488;20.952;2023-09-19T15:03:40;7.40;;;6.40;;
78614;SDS011;67937;52.488;20.952;2023-09-19T15:06:09;7.40;;;6.00;;
78614;SDS011;67937;52.488;20.952;2023-09-19T15:08:40;8.20;;;7.50;;
78614;SDS011;67937;52.488;20.952;2023-09-19T15:11:11;8.60;;;7.30;;
78614;SDS011;67937;52.488;20.952;2023-09-19T15:13:38;6.90;;;6.30;;
78614;SDS011;67937;52.488;20.952;2023-09-19T15:16:06;6.90;;;6.20;;
78614;SDS011;67937;52.488;20.952;2023-09-19T15:18:38;7.60;;;6.90;;
78614;SDS011;67937;52.488;20.952;2023-09-19T15:21:07;6.70;;;6.10;;
78614;SDS011;67937;52.488;20.952;2023-09-19T15:23:36;9.00;;;6.60;;
78614;SDS011;67937;52.488;20.952;2023-09-19T15:26:04;8.80;;;6.80;;
78614;SDS011;67937;52.488;20.952;2023-09-19T15:28:32;8.70;;;7.50;;
78614;SDS011;67937;52.488;20.952;2023-09-19T15:33:29;7.80;;;7.10;;
78614;SDS011;67937;52.488;20.952;2023-09-19T15:41:41;6.90;;;5.90;;
78614;SDS011;67937;52.488;20.952;2023-09-19T15:44:12;6.50;;;5.90;;
78614;SDS011;67937;52.488;20.952;2023-09-19T15:46:40;6.50;;;5.20;;
78614;SDS011;67937;52.488;20.952;2023-09-19T15:49:06;9.30;;;6.20;;
78614;SDS011;67937;52.488;20.952;2023-09-19T15:51:33;6.30;;;5.80;;
78614;SDS011;67937;52.488;20.952;2023-09-19T15:54:07;6.30;;;5.70;;